createdAt,value
2022-11-17T00:01:37.654Z,6.70
2022-11-17T00:06:39.473Z,7.35
2022-11-17T00:11:59.568Z,7.15
2022-11-17T00:17:02.007Z,8.38
2022-11-17T00:22:03.793Z,7.43
2022-11-17T00:27:05.785Z,6.72
2022-11-17T00:32:33.525Z,7.28
2022-11-17T00:37:38.096Z,6.72
2022-11-17T00:42:39.683Z,6.93
2022-11-17T00:47:43.040Z,7.93
2022-11-17T00:52:44.664Z,7.82
2022-11-17T00:57:46.258Z,7.35
2022-11-17T01:02:48.044Z,8.82
2022-11-17T01:07:49.810Z,7.32
2022-11-17T01:12:51.413Z,7.10
2022-11-17T01:17:53.063Z,7.07
2022-11-17T01:22:55.053Z,6.90
2022-11-17T01:27:56.608Z,10.27
2022-11-17T01:32:58.161Z,8.20
2022-11-17T01:37:59.848Z,7.68
2022-11-17T01:43:01.561Z,6.93
2022-11-17T01:48:06.845Z,7.28
2022-11-17T01:53:15.334Z,7.90
2022-11-17T01:58:33.497Z,9.45
2022-11-17T02:03:37.126Z,9.25
2022-11-17T02:08:41.155Z,6.95
2022-11-17T02:13:42.792Z,8.18
2022-11-17T02:18:46.798Z,8.73
2022-11-17T02:24:12.955Z,8.57
2022-11-17T02:29:44.752Z,6.00
2022-11-17T02:34:46.533Z,7.32
2022-11-17T02:40:10.644Z,6.57
2022-11-17T02:45:19.461Z,7.05
2022-11-17T02:50:28.031Z,6.82
2022-11-17T03:00:37.936Z,6.20
2022-11-17T03:05:48.605Z,6.53
2022-11-17T03:10:58.608Z,7.07
2022-11-17T03:16:08.356Z,6.68
2022-11-17T03:21:19.886Z,7.43
2022-11-17T03:26:32.032Z,7.43
2022-11-17T03:31:35.209Z,7.03
2022-11-17T03:36:40.110Z,7.25
2022-11-17T03:41:46.032Z,6.20
2022-11-17T03:46:49.524Z,5.93
2022-11-17T03:51:51.548Z,5.78
2022-11-17T03:57:01.468Z,6.95
2022-11-17T04:02:03.229Z,7.30
2022-11-17T04:07:04.872Z,7.28
2022-11-17T04:12:26.123Z,8.40
2022-11-17T04:17:27.676Z,7.47
2022-11-17T04:22:29.251Z,9.25
2022-11-17T04:27:49.530Z,8.68
2022-11-17T04:32:51.095Z,7.93
2022-11-17T04:37:52.637Z,7.78
2022-11-17T04:42:54.192Z,8.43
2022-11-17T04:47:56.025Z,8.80
2022-11-17T04:52:57.828Z,7.95
2022-11-17T04:57:59.406Z,8.30
2022-11-17T05:03:00.988Z,8.75
2022-11-17T05:08:02.566Z,10.00
2022-11-17T05:13:22.344Z,9.23
2022-11-17T05:18:23.908Z,8.48
2022-11-17T05:23:44.076Z,10.27
2022-11-17T05:28:46.141Z,9.43
2022-11-17T05:33:48.069Z,8.32
2022-11-17T05:38:50.464Z,7.95
2022-11-17T05:43:52.597Z,7.95
2022-11-17T05:48:54.844Z,7.45
2022-11-17T05:53:56.426Z,6.70
2022-11-17T05:59:07.129Z,6.45
2022-11-17T06:04:08.902Z,8.43
2022-11-17T06:09:10.633Z,7.78
2022-11-17T06:14:12.462Z,8.35
2022-11-17T06:19:20.870Z,8.55
2022-11-17T06:24:23.300Z,9.57
2022-11-17T06:29:26.102Z,9.45
2022-11-17T06:34:28.855Z,10.00
2022-11-17T06:39:30.508Z,10.05
2022-11-17T06:44:32.045Z,10.18
2022-11-17T06:49:33.631Z,13.13
2022-11-17T06:54:35.221Z,16.55
2022-11-17T06:59:37.329Z,17.35
2022-11-17T07:04:39.466Z,23.42
2022-11-17T07:09:41.111Z,16.08
2022-11-17T07:14:42.731Z,9.45
2022-11-17T07:19:44.533Z,11.35
2022-11-17T07:24:46.363Z,9.38
2022-11-17T07:29:48.131Z,8.65
2022-11-17T07:34:49.989Z,9.23
2022-11-17T07:39:51.658Z,9.75
2022-11-17T07:44:53.719Z,16.00
2022-11-17T07:49:55.399Z,10.73
2022-11-17T07:54:56.998Z,11.38
2022-11-17T07:59:58.570Z,11.85
2022-11-17T08:05:00.170Z,13.48
2022-11-17T08:10:01.982Z,10.65
2022-11-17T08:15:03.882Z,9.50
2022-11-17T08:20:05.866Z,10.15
2022-11-17T08:25:08.070Z,11.48
2022-11-17T08:30:10.290Z,13.23
2022-11-17T08:35:11.942Z,14.50
2022-11-17T08:40:14.598Z,16.98
2022-11-17T08:45:16.325Z,18.67
2022-11-17T08:50:18.327Z,17.88
2022-11-17T08:55:20.165Z,16.85
2022-11-17T09:00:22.178Z,16.67
2022-11-17T09:05:25.080Z,15.98
2022-11-17T09:10:26.709Z,16.02
2022-11-17T09:15:28.385Z,14.05
2022-11-17T09:20:31.869Z,25.42
2022-11-17T09:25:33.453Z,15.07
2022-11-17T09:30:36.295Z,21.85
2022-11-17T09:35:37.924Z,21.63
2022-11-17T09:40:41.604Z,20.42
2022-11-17T09:45:46.218Z,22.60
2022-11-17T09:50:49.542Z,20.55
2022-11-17T09:55:56.149Z,21.33
2022-11-17T10:00:57.872Z,19.88
2022-11-17T10:06:03.575Z,20.95
2022-11-17T10:11:31.608Z,18.45
2022-11-17T10:16:34.363Z,18.08
2022-11-17T10:21:37.949Z,16.88
2022-11-17T10:26:47.890Z,17.42
2022-11-17T10:31:49.930Z,16.30
2022-11-17T10:36:51.830Z,13.40
2022-11-17T10:41:54.331Z,14.63
2022-11-17T10:47:04.633Z,14.02
2022-11-17T10:52:15.741Z,13.23
2022-11-17T10:57:22.436Z,13.35
2022-11-17T11:02:34.440Z,14.63
2022-11-17T11:07:36.885Z,12.77
2022-11-17T11:13:01.980Z,13.25
2022-11-17T11:18:14.849Z,11.70
2022-11-17T11:23:43.875Z,12.23
2022-11-17T11:29:13.411Z,11.20
2022-11-17T11:34:40.969Z,12.05
2022-11-17T11:39:42.562Z,10.95
2022-11-17T11:45:03.018Z,11.35
2022-11-17T11:50:26.064Z,10.00
2022-11-17T11:55:34.974Z,10.60
2022-11-17T12:00:38.541Z,10.45
2022-11-17T12:05:48.558Z,10.77
2022-11-17T12:11:29.078Z,11.38
2022-11-17T12:16:36.227Z,12.30
2022-11-17T12:21:38.534Z,11.98
2022-11-17T12:26:40.188Z,9.93
2022-11-17T12:31:46.740Z,9.75
2022-11-17T12:37:16.861Z,8.60
2022-11-17T12:42:18.488Z,5.63
2022-11-17T12:47:25.401Z,4.80
2022-11-17T12:52:47.974Z,5.13
2022-11-17T12:57:58.008Z,4.80
2022-11-17T13:03:11.771Z,5.30
2022-11-17T13:08:13.297Z,5.22
2022-11-17T13:13:23.889Z,4.13
2022-11-17T13:18:38.193Z,4.20
2022-11-17T13:23:44.327Z,5.15
2022-11-17T13:28:46.563Z,5.15
2022-11-17T13:34:10.722Z,5.55
2022-11-17T13:39:17.006Z,4.57
2022-11-17T13:44:24.158Z,5.10
2022-11-17T13:49:38.446Z,4.82
2022-11-17T13:54:44.806Z,5.28
2022-11-17T13:59:46.915Z,6.30
2022-11-17T14:05:18.665Z,6.85
2022-11-17T14:10:20.428Z,47.05
2022-11-17T14:15:24.902Z,16.98
2022-11-17T14:20:35.872Z,10.77
2022-11-17T14:25:51.264Z,8.70
2022-11-17T14:30:57.391Z,7.43
2022-11-17T14:35:59.998Z,6.53
2022-11-17T14:41:01.624Z,7.75
2022-11-17T14:46:03.750Z,8.57
2022-11-17T14:51:05.645Z,7.40
2022-11-17T14:56:08.894Z,7.05
2022-11-17T15:01:13.730Z,5.68
2022-11-17T15:06:20.000Z,6.22
2022-11-17T15:11:23.662Z,5.95
2022-11-17T15:16:25.296Z,5.72
2022-11-17T15:21:26.919Z,6.13
2022-11-17T15:26:28.522Z,6.20
2022-11-17T15:31:30.249Z,6.57
2022-11-17T15:36:32.194Z,7.22
2022-11-17T15:41:33.822Z,8.05
2022-11-17T15:46:35.717Z,7.43
2022-11-17T15:51:37.525Z,7.65
2022-11-17T15:56:39.172Z,8.13
2022-11-17T16:01:41.113Z,7.70
2022-11-17T16:06:45.429Z,7.55
2022-11-17T16:11:47.135Z,8.05
2022-11-17T16:16:48.949Z,8.55
2022-11-17T16:21:51.189Z,8.85
2022-11-17T16:26:52.873Z,10.02
2022-11-17T16:31:55.323Z,10.48
2022-11-17T16:36:56.971Z,9.32
2022-11-17T16:42:00.187Z,8.98
2022-11-17T16:47:01.834Z,9.48
2022-11-17T16:52:03.688Z,9.40
2022-11-17T16:57:05.374Z,11.48
2022-11-17T17:02:06.950Z,9.48
2022-11-17T17:07:08.602Z,14.18
2022-11-17T17:12:10.324Z,14.02
2022-11-17T17:17:11.917Z,14.98
2022-11-17T17:22:13.531Z,20.63
2022-11-17T17:27:15.300Z,16.42
2022-11-17T17:32:16.933Z,21.48
2022-11-17T17:37:18.698Z,15.57
2022-11-17T17:42:20.494Z,29.95
2022-11-17T17:47:22.089Z,28.70
2022-11-17T17:52:23.681Z,18.92
2022-11-17T17:57:28.676Z,21.92
2022-11-17T18:02:33.907Z,12.55
2022-11-17T18:07:35.539Z,12.32
2022-11-17T18:12:37.461Z,12.18
2022-11-17T18:17:40.568Z,9.40
2022-11-17T18:22:42.438Z,11.02
2022-11-17T18:27:44.049Z,17.15
2022-11-17T18:32:45.677Z,19.45
2022-11-17T18:37:47.445Z,13.95
2022-11-17T18:42:49.291Z,13.43
2022-11-17T18:47:50.955Z,11.55
2022-11-17T18:52:52.595Z,14.32
2022-11-17T18:57:54.386Z,17.05
2022-11-17T19:02:56.006Z,13.10
2022-11-17T19:07:57.806Z,12.85
2022-11-17T19:12:59.390Z,14.75
2022-11-17T19:18:01.009Z,16.75
2022-11-17T19:23:02.625Z,17.20
2022-11-17T19:28:04.559Z,17.90
2022-11-17T19:33:06.174Z,19.65
2022-11-17T19:38:07.988Z,16.75
2022-11-17T19:43:09.601Z,20.92
2022-11-17T19:48:11.196Z,20.92
2022-11-17T19:53:12.781Z,21.92
2022-11-17T19:58:18.288Z,20.45
2022-11-17T20:03:21.218Z,20.10
2022-11-17T20:08:22.846Z,22.83
2022-11-17T20:13:24.454Z,26.83
2022-11-17T20:18:26.234Z,31.42
2022-11-17T20:23:27.833Z,28.77
2022-11-17T20:28:32.082Z,20.70
2022-11-17T20:33:34.403Z,27.35
2022-11-17T20:38:36.191Z,19.63
2022-11-17T20:43:37.927Z,16.80
2022-11-17T20:48:39.567Z,15.75
2022-11-17T20:53:41.390Z,18.30
2022-11-17T20:58:43.296Z,18.83
2022-11-17T21:03:45.460Z,20.55
2022-11-17T21:08:47.146Z,18.88
2022-11-17T21:13:48.737Z,21.83
2022-11-17T21:18:50.387Z,19.33
2022-11-17T21:23:55.815Z,21.17
2022-11-17T21:29:03.226Z,19.95
2022-11-17T21:34:12.599Z,20.80
2022-11-17T21:39:18.626Z,19.90
2022-11-17T21:44:20.859Z,22.13
2022-11-17T21:49:22.499Z,21.75
2022-11-17T21:54:24.309Z,19.35
2022-11-17T21:59:25.939Z,19.83
2022-11-17T22:04:27.558Z,20.70
2022-11-17T22:09:29.418Z,19.58
2022-11-17T22:14:31.603Z,18.95
2022-11-17T22:19:33.815Z,32.60
2022-11-17T22:24:37.767Z,21.98
2022-11-17T22:29:41.482Z,66.45
2022-11-17T22:34:43.678Z,23.95
2022-11-17T22:39:45.658Z,18.75
2022-11-17T22:44:47.321Z,19.13
2022-11-17T22:49:49.293Z,36.30
2022-11-17T22:54:50.929Z,30.75
2022-11-17T22:59:52.796Z,20.90
2022-11-17T23:04:54.457Z,17.63
2022-11-17T23:09:56.371Z,30.35
2022-11-17T23:14:58.426Z,19.63
2022-11-17T23:20:00.208Z,29.13
2022-11-17T23:25:02.339Z,35.63
2022-11-17T23:30:04.311Z,20.17
2022-11-17T23:35:06.601Z,16.27
2022-11-17T23:40:09.050Z,15.40
2022-11-17T23:45:12.164Z,17.52
2022-11-17T23:50:13.810Z,15.20
2022-11-17T23:55:15.490Z,16.58
